Time,TemperatureF,DewpointF,PressureIn,WindDirection,WindDirectionDegrees,WindSpeedMPH,WindSpeedGustMPH,Humidity,HourlyPrecipIn,Conditions,Clouds,dailyrainin,SoftwareType,DateUTC
2013-05-01 00:01:00,72.5,54.8,29.83,SSW,202,10.5,14.8,54,0.00,,,0.00,WUHU21623XXSP,2013-05-01 05:01:00,
2013-05-01 00:06:00,72.3,54.6,29.83,SW,225,14.1,15.7,54,0.00,,,0.00,WUHU21623XXSP,2013-05-01 05:06:00,
2013-05-01 00:11:00,72.3,55.1,29.83,SSW,202,4.9,15.7,55,0.00,,,0.00,WUHU21623XXSP,2013-05-01 05:11:00,
2013-05-01 00:16:00,72.3,55.1,29.84,SSW,202,9.4,15.0,55,0.00,,,0.00,WUHU21623XXSP,2013-05-01 05:16:00,
2013-05-01 00:21:00,72.3,55.1,29.84,South,180,7.6,13.2,55,0.00,,,0.00,WUHU21623XXSP,2013-05-01 05:21:00,
2013-05-01 00:26:00,72.1,55.0,29.85,SSW,202,8.3,11.4,55,0.00,,,0.00,WUHU21623XXSP,2013-05-01 05:26:00,
2013-05-01 00:31:00,72.1,55.0,29.85,SSW,202,10.5,10.7,55,0.00,,,0.00,WUHU21623XXSP,2013-05-01 05:31:00,
2013-05-01 00:36:00,72.0,55.3,29.85,SSW,202,8.9,14.8,56,0.00,,,0.00,WUHU21623XXSP,2013-05-01 05:36:00,
2013-05-01 00:41:00,72.0,55.3,29.84,SSE,157,9.6,14.8,56,0.00,,,0.00,WUHU21623XXSP,2013-05-01 05:41:00,
2013-05-01 00:46:00,72.0,55.3,29.84,SSW,202,8.3,13.0,56,0.00,,,0.00,WUHU21623XXSP,2013-05-01 05:46:00,
2013-05-01 00:51:00,71.8,55.2,29.85,SSW,202,10.1,12.3,56,0.00,,,0.00,WUHU21623XXSP,2013-05-01 05:51:00,
2013-05-01 00:56:00,71.8,55.2,29.85,South,180,4.7,12.8,56,0.00,,,0.00,WUHU21623XXSP,2013-05-01 05:56:00,
2013-05-01 01:01:00,71.8,55.7,29.85,SSW,202,13.0,13.0,57,0.00,,,0.00,WUHU21623XXSP,2013-05-01 06:01:00,
2013-05-01 01:06:00,71.4,55.3,29.85,SSW,202,8.1,13.0,57,0.00,,,0.00,WUHU21623XXSP,2013-05-01 06:06:00,
2013-05-01 01:11:00,71.4,55.3,29.85,SSW,202,5.1,16.6,57,0.00,,,0.00,WUHU21623XXSP,2013-05-01 06:11:00,
2013-05-01 01:16:00,71.4,55.3,29.85,SSW,202,3.1,16.6,57,0.00,,,0.00,WUHU21623XXSP,2013-05-01 06:16:00,
2013-05-01 01:21:00,71.2,55.2,29.86,SSE,157,9.8,12.3,57,0.00,,,0.00,WUHU21623XXSP,2013-05-01 06:21:00,
2013-05-01 01:26:00,70.9,55.4,29.85,South,180,4.7,10.5,58,0.00,,,0.00,WUHU21623XXSP,2013-05-01 06:26:00,
2013-05-01 01:31:00,70.5,55.5,29.85,South,180,6.7,9.6,59,0.00,,,0.00,WUHU21623XXSP,2013-05-01 06:31:00,
2013-05-01 01:36:00,70.0,55.1,29.86,SSW,202,5.6,9.6,59,0.00,,,0.00,WUHU21623XXSP,2013-05-01 06:36:00,
2013-05-01 01:41:00,69.6,55.2,29.86,SW,225,6.0,8.3,60,0.00,,,0.00,WUHU21623XXSP,2013-05-01 06:41:00,
2013-05-01 01:46:00,69.4,55.0,29.86,WSW,247,2.2,8.1,60,0.00,,,0.00,WUHU21623XXSP,2013-05-01 06:46:00,
2013-05-01 01:51:00,69.4,55.5,29.87,West,270,1.6,6.3,61,0.00,,,0.00,WUHU21623XXSP,2013-05-01 06:51:00,
2013-05-01 01:56:00,69.1,55.1,29.87,SSW,202,0.0,6.5,61,0.00,,,0.00,WUHU21623XXSP,2013-05-01 06:56:00,
2013-05-01 02:01:00,68.7,55.2,29.86,SSW,202,4.9,6.5,62,0.00,,,0.00,WUHU21623XXSP,2013-05-01 07:01:00,
2013-05-01 02:06:00,68.5,55.4,29.87,NW,315,1.3,5.4,63,0.00,,,0.00,WUHU21623XXSP,2013-05-01 07:06:00,
2013-05-01 02:11:00,68.2,55.2,29.87,SSE,157,0.0,5.4,63,0.00,,,0.00,WUHU21623XXSP,2013-05-01 07:11:00,
2013-05-01 02:16:00,67.8,54.7,29.87,SW,225,0.0,2.2,63,0.00,,,0.00,WUHU21623XXSP,2013-05-01 07:16:00,
2013-05-01 02:21:00,66.9,54.3,29.87,SSW,202,0.0,1.8,64,0.00,,,0.00,WUHU21623XXSP,2013-05-01 07:21:00,
2013-05-01 02:26:00,66.2,54.0,29.88,SSW,202,0.0,1.8,65,0.00,,,0.00,WUHU21623XXSP,2013-05-01 07:26:00,
2013-05-01 02:31:00,65.3,53.6,29.88,SSW,202,0.0,1.6,66,0.00,,,0.00,WUHU21623XXSP,2013-05-01 07:31:00,
2013-05-01 02:36:00,65.1,53.9,29.89,East,90,0.0,8.9,67,0.00,,,0.00,WUHU21623XXSP,2013-05-01 07:36:00,
2013-05-01 02:41:00,65.7,52.7,29.89,NNW,337,2.9,8.9,63,0.00,,,0.00,WUHU21623XXSP,2013-05-01 07:41:00,
2013-05-01 02:46:00,65.3,51.9,29.89,North,0,0.0,8.1,62,0.00,,,0.00,WUHU21623XXSP,2013-05-01 07:46:00,
2013-05-01 02:51:00,64.6,51.2,29.89,North,0,1.6,4.9,62,0.00,,,0.00,WUHU21623XXSP,2013-05-01 07:51:00,
2013-05-01 02:56:00,64.0,51.1,29.89,NNW,337,0.0,4.5,63,0.00,,,0.00,WUHU21623XXSP,2013-05-01 07:56:00,
2013-05-01 03:01:00,63.7,50.8,29.89,NNE,22,0.0,2.5,63,0.00,,,0.00,WUHU21623XXSP,2013-05-01 08:01:00,
2013-05-01 03:06:00,63.0,50.5,29.89,NNE,22,0.7,1.8,64,0.00,,,0.00,WUHU21623XXSP,2013-05-01 08:06:00,
2013-05-01 03:11:00,62.4,49.2,29.89,North,0,0.0,3.1,62,0.00,,,0.00,WUHU21623XXSP,2013-05-01 08:11:00,
2013-05-01 03:16:00,62.4,48.8,29.89,NE,45,1.3,5.6,61,0.00,,,0.00,WUHU21623XXSP,2013-05-01 08:16:00,
2013-05-01 03:21:00,62.2,48.7,29.89,ENE,67,0.0,5.6,61,0.00,,,0.00,WUHU21623XXSP,2013-05-01 08:21:00,
2013-05-01 03:26:00,61.7,48.6,29.90,East,90,0.0,1.1,62,0.00,,,0.00,WUHU21623XXSP,2013-05-01 08:26:00,
2013-05-01 03:31:00,61.2,47.7,29.89,ENE,67,3.4,3.4,61,0.00,,,0.00,WUHU21623XXSP,2013-05-01 08:31:00,
2013-05-01 03:36:00,61.0,47.5,29.89,ENE,67,0.0,3.4,61,0.00,,,0.00,WUHU21623XXSP,2013-05-01 08:36:00,
2013-05-01 03:41:00,60.6,47.2,29.89,SE,135,0.0,1.6,61,0.00,,,0.00,WUHU21623XXSP,2013-05-01 08:41:00,
2013-05-01 03:46:00,60.4,47.0,29.89,SE,135,0.0,1.6,61,0.00,,,0.00,WUHU21623XXSP,2013-05-01 08:46:00,
2013-05-01 03:51:00,60.4,46.6,29.90,SSE,157,0.0,2.0,60,0.00,,,0.00,WUHU21623XXSP,2013-05-01 08:51:00,
2013-05-01 03:56:00,60.4,47.0,29.90,ESE,112,0.0,2.0,61,0.00,,,0.00,WUHU21623XXSP,2013-05-01 08:56:00,
2013-05-01 04:01:00,59.9,46.5,29.90,SE,135,0.0,2.0,61,0.00,,,0.00,WUHU21623XXSP,2013-05-01 09:01:00,
2013-05-01 04:06:00,59.7,46.3,29.90,SE,135,0.0,2.0,61,0.00,,,0.00,WUHU21623XXSP,2013-05-01 09:06:00,
2013-05-01 04:11:00,59.5,46.5,29.90,NE,45,0.0,1.1,62,0.00,,,0.00,WUHU21623XXSP,2013-05-01 09:11:00,
2013-05-01 04:16:00,59.2,46.1,29.91,South,180,0.0,1.1,62,0.00,,,0.00,WUHU21623XXSP,2013-05-01 09:16:00,
2013-05-01 04:21:00,59.2,46.1,29.91,SE,135,0.0,0.0,62,0.00,,,0.00,WUHU21623XXSP,2013-05-01 09:21:00,
2013-05-01 04:26:00,59.2,46.1,29.91,SSE,157,0.0,0.9,62,0.00,,,0.00,WUHU21623XXSP,2013-05-01 09:26:00,
2013-05-01 04:31:00,59.2,46.1,29.91,South,180,0.0,0.9,62,0.00,,,0.00,WUHU21623XXSP,2013-05-01 09:31:00,
2013-05-01 04:36:00,58.8,46.2,29.91,South,180,0.0,4.0,63,0.00,,,0.00,WUHU21623XXSP,2013-05-01 09:36:00,
2013-05-01 04:41:00,58.8,46.2,29.91,South,180,0.0,4.0,63,0.00,,,0.00,WUHU21623XXSP,2013-05-01 09:41:00,
2013-05-01 04:46:00,58.8,45.8,29.91,South,180,0.0,2.7,62,0.00,,,0.00,WUHU21623XXSP,2013-05-01 09:46:00,
2013-05-01 04:51:00,58.8,46.2,29.91,SSE,157,0.0,2.7,63,0.00,,,0.00,WUHU21623XXSP,2013-05-01 09:51:00,
2013-05-01 04:56:00,58.8,46.2,29.91,SSE,157,0.0,0.0,63,0.00,,,0.00,WUHU21623XXSP,2013-05-01 09:56:00,
2013-05-01 05:01:00,58.6,46.0,29.92,South,180,0.0,0.0,63,0.00,,,0.00,WUHU21623XXSP,2013-05-01 10:01:00,
2013-05-01 05:06:00,58.3,46.1,29.92,NNE,22,0.0,0.0,64,0.00,,,0.00,WUHU21623XXSP,2013-05-01 10:06:00,
2013-05-01 05:11:00,57.9,45.8,29.92,NNE,22,0.0,0.0,64,0.00,,,0.00,WUHU21623XXSP,2013-05-01 10:11:00,
2013-05-01 05:16:00,57.4,45.3,29.92,NNE,22,0.0,0.0,64,0.00,,,0.00,WUHU21623XXSP,2013-05-01 10:16:00,
2013-05-01 05:21:00,57.4,45.7,29.92,ENE,67,0.0,0.0,65,0.00,,,0.00,WUHU21623XXSP,2013-05-01 10:21:00,
2013-05-01 05:26:00,57.0,45.3,29.92,ENE,67,0.0,0.0,65,0.00,,,0.00,WUHU21623XXSP,2013-05-01 10:26:00,
2013-05-01 05:31:00,56.8,45.6,29.92,SE,135,0.0,0.0,66,0.00,,,0.00,WUHU21623XXSP,2013-05-01 10:31:00,
2013-05-01 05:36:00,56.8,45.6,29.93,ENE,67,0.0,0.0,66,0.00,,,0.00,WUHU21623XXSP,2013-05-01 10:36:00,
2013-05-01 05:41:00,56.5,45.6,29.93,North,0,1.6,1.8,67,0.00,,,0.00,WUHU21623XXSP,2013-05-01 10:41:00,
2013-05-01 05:46:00,56.1,45.3,29.93,ENE,67,0.0,1.8,67,0.00,,,0.00,WUHU21623XXSP,2013-05-01 10:46:00,
2013-05-01 05:51:00,55.9,45.5,29.93,NE,45,0.0,1.6,68,0.00,,,0.00,WUHU21623XXSP,2013-05-01 10:51:00,
2013-05-01 05:56:00,55.8,45.8,29.93,NNE,22,0.0,0.0,69,0.00,,,0.00,WUHU21623XXSP,2013-05-01 10:56:00,
2013-05-01 06:01:00,55.4,45.4,29.94,NNE,22,0.0,0.0,69,0.00,,,0.00,WUHU21623XXSP,2013-05-01 11:01:00,
2013-05-01 06:06:00,55.2,45.3,29.94,NNE,22,0.0,0.0,69,0.00,,,0.00,WUHU21623XXSP,2013-05-01 11:06:00,
2013-05-01 06:11:00,55.0,45.8,29.94,North,0,0.0,0.0,71,0.00,,,0.00,WUHU21623XXSP,2013-05-01 11:11:00,
2013-05-01 06:16:00,55.0,45.8,29.94,NE,45,0.0,0.0,71,0.00,,,0.00,WUHU21623XXSP,2013-05-01 11:16:00,
2013-05-01 06:21:00,54.9,45.7,29.94,NE,45,0.0,0.0,71,0.00,,,0.00,WUHU21623XXSP,2013-05-01 11:21:00,
2013-05-01 06:26:00,54.9,45.7,29.95,SSE,157,0.0,0.0,71,0.00,,,0.00,WUHU21623XXSP,2013-05-01 11:26:00,
2013-05-01 06:31:00,55.2,46.0,29.95,SSE,157,0.0,0.0,71,0.00,,,0.00,WUHU21623XXSP,2013-05-01 11:31:00,
2013-05-01 06:36:00,55.2,46.0,29.95,SSE,157,0.0,0.0,71,0.00,,,0.00,WUHU21623XXSP,2013-05-01 11:36:00,
2013-05-01 06:40:00,55.6,46.7,29.95,NNE,22,0.0,0.0,72,0.00,,,0.00,WUHU21623XXSP,2013-05-01 11:40:00,
2013-05-01 06:45:00,55.8,46.7,29.95,NE,45,0.0,0.0,72,0.00,,,0.00,WUHU21623XXSP,2013-05-01 11:45:00,
2013-05-01 06:50:00,55.9,47.0,29.96,NW,315,2.2,2.5,72,0.00,,,0.00,WUHU21623XXSP,2013-05-01 11:50:00,
2013-05-01 06:55:00,56.5,47.5,29.96,NNW,337,0.0,2.9,72,0.00,,,0.00,WUHU21623XXSP,2013-05-01 11:55:00,
2013-05-01 07:00:00,56.8,47.2,29.97,NNW,337,0.9,2.9,70,0.00,,,0.00,WUHU21623XXSP,2013-05-01 12:00:00,
2013-05-01 07:05:00,57.4,47.7,29.97,NNW,337,0.0,2.2,70,0.00,,,0.00,WUHU21623XXSP,2013-05-01 12:05:00,
2013-05-01 07:10:00,57.7,48.0,29.97,North,0,0.0,2.5,70,0.00,,,0.00,WUHU21623XXSP,2013-05-01 12:10:00,
2013-05-01 07:15:00,58.1,48.4,29.97,NW,315,0.0,3.4,70,0.00,,,0.00,WUHU21623XXSP,2013-05-01 12:15:00,
2013-05-01 07:20:00,58.5,48.3,29.98,NNW,337,0.0,3.4,69,0.00,,,0.00,WUHU21623XXSP,2013-05-01 12:20:00,
2013-05-01 07:25:00,58.8,48.7,29.98,North,0,1.6,4.7,69,0.00,,,0.00,WUHU21623XXSP,2013-05-01 12:25:00,
2013-05-01 07:30:00,58.8,48.7,29.97,North,0,2.2,4.7,69,0.00,,,0.00,WUHU21623XXSP,2013-05-01 12:30:00,
2013-05-01 07:35:00,59.5,49.0,29.98,NE,45,0.0,2.7,68,0.00,,,0.00,WUHU21623XXSP,2013-05-01 12:35:00,
2013-05-01 07:40:00,60.4,49.5,29.98,North,0,2.0,2.0,67,0.00,,,0.00,WUHU21623XXSP,2013-05-01 12:40:00,
2013-05-01 07:45:00,61.0,49.6,29.98,North,0,2.5,4.9,66,0.00,,,0.00,WUHU21623XXSP,2013-05-01 12:45:00,
2013-05-01 07:50:00,61.5,49.7,29.98,NNW,337,1.1,4.9,65,0.00,,,0.00,WUHU21623XXSP,2013-05-01 12:50:00,
2013-05-01 07:55:00,62.2,50.3,29.98,NNE,22,2.0,3.1,65,0.00,,,0.00,WUHU21623XXSP,2013-05-01 12:55:00,
2013-05-01 08:00:00,62.6,50.2,29.99,North,0,1.3,2.9,64,0.00,,,0.00,WUHU21623XXSP,2013-05-01 13:00:00,
2013-05-01 08:05:00,63.1,50.7,29.98,North,0,2.0,3.4,64,0.00,,,0.00,WUHU21623XXSP,2013-05-01 13:05:00,
2013-05-01 08:10:00,63.7,50.8,29.99,WNW,292,1.3,3.4,63,0.00,,,0.00,WUHU21623XXSP,2013-05-01 13:10:00,
2013-05-01 08:15:00,64.0,50.7,29.99,NW,315,0.0,3.6,62,0.00,,,0.00,WUHU21623XXSP,2013-05-01 13:15:00,
2013-05-01 08:20:00,64.2,50.4,29.99,NNE,22,0.0,3.6,61,0.00,,,0.00,WUHU21623XXSP,2013-05-01 13:20:00,
2013-05-01 08:25:00,64.9,51.1,29.99,NNE,22,2.2,3.6,61,0.00,,,0.00,WUHU21623XXSP,2013-05-01 13:25:00,
2013-05-01 08:30:00,65.1,51.3,29.99,NW,315,2.9,3.6,61,0.00,,,0.00,WUHU21623XXSP,2013-05-01 13:30:00,
2013-05-01 08:35:00,65.1,50.9,29.99,West,270,1.3,3.6,60,0.00,,,0.00,WUHU21623XXSP,2013-05-01 13:35:00,
2013-05-01 08:40:00,65.5,51.3,29.99,North,0,2.7,3.6,60,0.00,,,0.00,WUHU21623XXSP,2013-05-01 13:40:00,
2013-05-01 08:45:00,65.8,51.6,29.99,North,0,1.6,3.6,60,0.00,,,0.00,WUHU21623XXSP,2013-05-01 13:45:00,
2013-05-01 08:50:00,66.0,51.3,30.00,NE,45,0.7,4.0,59,0.00,,,0.00,WUHU21623XXSP,2013-05-01 13:50:00,
2013-05-01 08:55:00,66.6,51.8,30.00,North,0,1.1,4.3,59,0.00,,,0.00,WUHU21623XXSP,2013-05-01 13:55:00,
2013-05-01 09:00:00,66.9,52.1,30.00,East,90,0.0,4.3,59,0.00,,,0.00,WUHU21623XXSP,2013-05-01 14:00:00,
2013-05-01 09:05:00,67.8,52.5,30.00,NNE,22,2.2,2.2,58,0.00,,,0.00,WUHU21623XXSP,2013-05-01 14:05:00,
2013-05-01 09:10:00,67.8,52.0,30.00,NW,315,2.2,3.8,57,0.00,,,0.00,WUHU21623XXSP,2013-05-01 14:10:00,
2013-05-01 09:15:00,67.8,52.5,30.00,SE,135,1.8,3.8,58,0.00,,,0.00,WUHU21623XXSP,2013-05-01 14:15:00,
2013-05-01 09:20:00,68.4,53.0,30.01,North,0,2.0,3.1,58,0.00,,,0.00,WUHU21623XXSP,2013-05-01 14:20:00,
2013-05-01 09:25:00,68.4,52.5,30.01,SW,225,3.1,4.7,57,0.00,,,0.00,WUHU21623XXSP,2013-05-01 14:25:00,
2013-05-01 09:30:00,68.2,53.3,30.01,West,270,0.9,4.7,59,0.00,,,0.00,WUHU21623XXSP,2013-05-01 14:30:00,
2013-05-01 09:35:00,68.9,53.0,30.01,WNW,292,0.0,3.8,57,0.00,,,0.00,WUHU21623XXSP,2013-05-01 14:35:00,
2013-05-01 09:40:00,68.7,53.3,30.01,NNE,22,1.8,3.6,58,0.00,,,0.00,WUHU21623XXSP,2013-05-01 14:40:00,
2013-05-01 09:45:00,69.8,53.9,30.00,North,0,0.0,4.5,57,0.00,,,0.00,WUHU21623XXSP,2013-05-01 14:45:00,
2013-05-01 09:50:00,70.2,53.7,30.01,WNW,292,1.8,4.5,56,0.00,,,0.00,WUHU21623XXSP,2013-05-01 14:50:00,
2013-05-01 09:55:00,70.2,53.7,30.01,NW,315,4.5,5.6,56,0.00,,,0.00,WUHU21623XXSP,2013-05-01 14:55:00,
2013-05-01 10:00:00,69.4,53.5,30.01,WSW,247,3.1,5.6,57,0.00,,,0.00,WUHU21623XXSP,2013-05-01 15:00:00,
2013-05-01 10:05:00,70.0,54.0,30.01,ESE,112,0.0,4.0,57,0.00,,,0.00,WUHU21623XXSP,2013-05-01 15:05:00,
2013-05-01 10:10:00,70.5,54.5,30.01,SSW,202,1.1,3.1,57,0.00,,,0.00,WUHU21623XXSP,2013-05-01 15:10:00,
2013-05-01 10:15:00,70.2,54.2,30.01,SW,225,2.0,4.3,57,0.00,,,0.00,WUHU21623XXSP,2013-05-01 15:15:00,
2013-05-01 10:20:00,70.9,54.4,30.01,North,0,3.1,4.9,56,0.00,,,0.00,WUHU21623XXSP,2013-05-01 15:20:00,
2013-05-01 10:25:00,70.9,53.9,30.02,NNW,337,1.3,4.9,55,0.00,,,0.00,WUHU21623XXSP,2013-05-01 15:25:00,
2013-05-01 10:30:00,71.1,54.5,30.02,East,90,0.0,4.9,56,0.00,,,0.00,WUHU21623XXSP,2013-05-01 15:30:00,
2013-05-01 10:35:00,71.8,54.7,30.02,NNE,22,0.0,4.5,55,0.00,,,0.00,WUHU21623XXSP,2013-05-01 15:35:00,
2013-05-01 10:40:00,72.7,55.0,30.02,West,270,4.0,4.5,54,0.00,,,0.00,WUHU21623XXSP,2013-05-01 15:40:00,
2013-05-01 10:45:00,72.1,54.5,30.02,SW,225,5.1,6.7,54,0.00,,,0.00,WUHU21623XXSP,2013-05-01 15:45:00,
2013-05-01 10:50:00,71.8,54.7,30.02,SW,225,2.0,6.7,55,0.00,,,0.00,WUHU21623XXSP,2013-05-01 15:50:00,
2013-05-01 10:55:00,71.8,54.7,30.02,South,180,2.5,5.1,55,0.00,,,0.00,WUHU21623XXSP,2013-05-01 15:55:00,
2013-05-01 11:00:00,72.3,55.7,30.02,WSW,247,0.0,5.1,56,0.00,,,0.00,WUHU21623XXSP,2013-05-01 16:00:00,
2013-05-01 11:05:00,72.1,54.5,30.02,NW,315,1.3,6.5,54,0.00,,,0.00,WUHU21623XXSP,2013-05-01 16:05:00,
2013-05-01 11:10:00,72.7,54.5,30.03,SW,225,2.2,6.5,53,0.00,,,0.00,WUHU21623XXSP,2013-05-01 16:10:00,
2013-05-01 11:15:00,73.0,54.8,30.02,WSW,247,0.0,4.9,53,0.00,,,0.00,WUHU21623XXSP,2013-05-01 16:15:00,
2013-05-01 11:20:00,72.1,55.0,30.02,SW,225,3.1,9.6,55,0.00,,,0.00,WUHU21623XXSP,2013-05-01 16:20:00,
2013-05-01 11:25:00,71.8,54.7,30.02,West,270,0.0,9.6,55,0.00,,,0.00,WUHU21623XXSP,2013-05-01 16:25:00,
2013-05-01 11:30:00,72.7,55.0,30.03,WNW,292,2.9,6.7,54,0.00,,,0.00,WUHU21623XXSP,2013-05-01 16:30:00,
2013-05-01 11:35:00,73.2,55.5,30.02,West,270,3.8,7.6,54,0.00,,,0.00,WUHU21623XXSP,2013-05-01 16:35:00,
2013-05-01 11:40:00,73.6,54.8,30.03,SSW,202,2.2,7.6,52,0.00,,,0.00,WUHU21623XXSP,2013-05-01 16:40:00,
2013-05-01 11:45:00,73.2,54.4,30.03,ENE,67,0.0,5.4,52,0.00,,,0.00,WUHU21623XXSP,2013-05-01 16:45:00,
2013-05-01 11:50:00,73.8,55.0,30.03,West,270,0.0,4.5,52,0.00,,,0.00,WUHU21623XXSP,2013-05-01 16:50:00,
2013-05-01 11:55:00,74.3,55.5,30.02,SSE,157,3.8,6.0,52,0.00,,,0.00,WUHU21623XXSP,2013-05-01 16:55:00,
2013-05-01 12:00:00,74.1,55.3,30.03,SSW,202,3.1,7.2,52,0.00,,,0.00,WUHU21623XXSP,2013-05-01 17:00:00,
2013-05-01 12:05:00,74.5,55.2,30.03,West,270,4.9,7.2,51,0.00,,,0.00,WUHU21623XXSP,2013-05-01 17:05:00,
2013-05-01 12:10:00,74.1,54.8,30.02,SSW,202,3.6,4.9,51,0.00,,,0.00,WUHU21623XXSP,2013-05-01 17:10:00,
2013-05-01 12:15:00,74.5,54.7,30.02,WNW,292,2.2,8.1,50,0.00,,,0.00,WUHU21623XXSP,2013-05-01 17:15:00,
2013-05-01 12:20:00,75.2,56.4,30.02,NNE,22,2.5,8.1,52,0.00,,,0.00,WUHU21623XXSP,2013-05-01 17:20:00,
2013-05-01 12:25:00,75.7,55.9,30.02,SW,225,6.7,7.4,50,0.00,,,0.00,WUHU21623XXSP,2013-05-01 17:25:00,
2013-05-01 12:30:00,75.0,55.7,30.02,SSW,202,0.0,8.9,51,0.00,,,0.00,WUHU21623XXSP,2013-05-01 17:30:00,
2013-05-01 12:35:00,75.9,56.6,30.02,SSW,202,0.0,8.9,51,0.00,,,0.00,WUHU21623XXSP,2013-05-01 17:35:00,
2013-05-01 12:40:00,75.7,55.9,30.02,South,180,4.9,6.3,50,0.00,,,0.00,WUHU21623XXSP,2013-05-01 17:40:00,
2013-05-01 12:45:00,75.6,55.7,30.01,SSE,157,1.3,8.7,50,0.00,,,0.00,WUHU21623XXSP,2013-05-01 17:45:00,
2013-05-01 12:50:00,77.2,58.2,30.02,SE,135,6.0,10.5,52,0.00,,,0.00,WUHU21623XXSP,2013-05-01 17:50:00,
2013-05-01 12:55:00,76.3,55.8,30.02,West,270,4.5,10.5,49,0.00,,,0.00,WUHU21623XXSP,2013-05-01 17:55:00,
2013-05-01 13:00:00,76.1,55.6,30.02,West,270,4.9,9.6,49,0.00,,,0.00,WUHU21623XXSP,2013-05-01 18:00:00,
2013-05-01 13:05:00,77.2,57.2,30.02,SSW,202,3.4,9.6,50,0.00,,,0.00,WUHU21623XXSP,2013-05-01 18:05:00,
2013-05-01 13:10:00,77.9,57.2,30.02,South,180,2.2,6.3,49,0.00,,,0.00,WUHU21623XXSP,2013-05-01 18:10:00,
2013-05-01 13:15:00,78.1,57.4,30.02,SSE,157,7.2,8.1,49,0.00,,,0.00,WUHU21623XXSP,2013-05-01 18:15:00,
2013-05-01 13:20:00,77.9,56.6,30.03,WSW,247,5.1,11.4,48,0.00,,,0.00,WUHU21623XXSP,2013-05-01 18:20:00,
2013-05-01 13:25:00,76.8,55.6,30.02,SSW,202,0.0,12.5,48,0.00,,,0.00,WUHU21623XXSP,2013-05-01 18:25:00,
2013-05-01 13:30:00,78.1,55.5,30.02,SW,225,11.2,12.5,46,0.00,,,0.00,WUHU21623XXSP,2013-05-01 18:30:00,
2013-05-01 13:35:00,77.7,55.2,30.03,NE,45,1.6,13.4,46,0.00,,,0.00,WUHU21623XXSP,2013-05-01 18:35:00,
2013-05-01 13:40:00,78.6,56.6,30.03,SSW,202,6.9,13.4,47,0.00,,,0.00,WUHU21623XXSP,2013-05-01 18:40:00,
2013-05-01 13:45:00,78.4,56.5,30.02,West,270,2.2,10.3,47,0.00,,,0.00,WUHU21623XXSP,2013-05-01 18:45:00,
2013-05-01 13:50:00,79.2,55.9,30.02,SSW,202,5.4,11.9,45,0.00,,,0.00,WUHU21623XXSP,2013-05-01 18:50:00,
2013-05-01 13:55:00,78.6,56.0,30.02,SW,225,7.2,11.9,46,0.00,,,0.00,WUHU21623XXSP,2013-05-01 18:55:00,
2013-05-01 14:00:00,79.2,55.3,30.02,West,270,3.8,9.8,44,0.00,,,0.00,WUHU21623XXSP,2013-05-01 19:00:00,
2013-05-01 14:05:00,79.5,55.6,30.02,West,270,5.6,6.9,44,0.00,,,0.00,WUHU21623XXSP,2013-05-01 19:05:00,
2013-05-01 14:10:00,79.9,55.3,30.03,NW,315,2.2,6.9,43,0.00,,,0.00,WUHU21623XXSP,2013-05-01 19:10:00,
2013-05-01 14:15:00,80.4,55.2,30.03,NW,315,2.7,6.9,42,0.00,,,0.00,WUHU21623XXSP,2013-05-01 19:15:00,
2013-05-01 14:20:00,80.8,55.5,30.02,West,270,2.0,5.4,42,0.00,,,0.00,WUHU21623XXSP,2013-05-01 19:20:00,
2013-05-01 14:25:00,81.1,55.9,30.02,WNW,292,2.9,5.8,42,0.00,,,0.00,WUHU21623XXSP,2013-05-01 19:25:00,
2013-05-01 14:30:00,81.0,56.3,30.03,SSW,202,3.1,5.8,43,0.00,,,0.00,WUHU21623XXSP,2013-05-01 19:30:00,
2013-05-01 14:35:00,81.5,57.4,30.03,WSW,247,2.5,6.3,44,0.00,,,0.00,WUHU21623XXSP,2013-05-01 19:35:00,
2013-05-01 14:40:00,81.1,55.2,30.03,WSW,247,7.6,8.1,41,0.00,,,0.00,WUHU21623XXSP,2013-05-01 19:40:00,
2013-05-01 14:45:00,80.4,55.2,30.02,West,270,2.9,8.1,42,0.00,,,0.00,WUHU21623XXSP,2013-05-01 19:45:00,
2013-05-01 14:50:00,80.4,55.2,30.02,WSW,247,2.7,6.7,42,0.00,,,0.00,WUHU21623XXSP,2013-05-01 19:50:00,
2013-05-01 14:55:00,80.4,55.2,30.02,WSW,247,3.1,6.3,42,0.00,,,0.00,WUHU21623XXSP,2013-05-01 19:55:00,
2013-05-01 15:00:00,80.2,54.4,30.02,WSW,247,6.9,6.9,41,0.00,,,0.00,WUHU21623XXSP,2013-05-01 20:00:00,
2013-05-01 15:05:00,80.6,55.4,30.02,ENE,67,1.3,6.9,42,0.00,,,0.00,WUHU21623XXSP,2013-05-01 20:05:00,
2013-05-01 15:10:00,82.0,56.7,30.02,NNW,337,0.9,6.9,42,0.00,,,0.00,WUHU21623XXSP,2013-05-01 20:10:00,
2013-05-01 15:15:00,82.2,55.6,30.02,NNW,337,2.0,6.9,40,0.00,,,0.00,WUHU21623XXSP,2013-05-01 20:15:00,
2013-05-01 15:20:00,82.2,56.8,30.02,NW,315,0.9,4.7,42,0.00,,,0.00,WUHU21623XXSP,2013-05-01 20:20:00,
2013-05-01 15:25:00,81.7,55.7,30.01,North,0,2.7,7.4,41,0.00,,,0.00,WUHU21623XXSP,2013-05-01 20:25:00,
2013-05-01 15:30:00,82.0,56.7,30.02,NE,45,9.6,9.6,42,0.00,,,0.00,WUHU21623XXSP,2013-05-01 20:30:00,
2013-05-01 15:36:00,81.3,56.0,30.02,NNE,22,2.5,9.6,42,0.00,,,0.00,WUHU21623XXSP,2013-05-01 20:36:00,
2013-05-01 15:41:00,81.1,55.9,30.02,NNW,337,6.9,9.6,42,0.00,,,0.00,WUHU21623XXSP,2013-05-01 20:41:00,
2013-05-01 15:46:00,80.8,56.1,30.02,NNE,22,2.5,9.6,43,0.00,,,0.00,WUHU21623XXSP,2013-05-01 20:46:00,
2013-05-01 15:51:00,81.3,56.0,30.02,NE,45,5.8,8.1,42,0.00,,,0.00,WUHU21623XXSP,2013-05-01 20:51:00,
2013-05-01 15:56:00,80.8,54.9,30.03,North,0,0.9,7.6,41,0.00,,,0.00,WUHU21623XXSP,2013-05-01 20:56:00,
2013-05-01 16:01:00,81.0,55.7,30.03,North,0,4.0,6.5,42,0.00,,,0.00,WUHU21623XXSP,2013-05-01 21:01:00,
2013-05-01 16:06:00,80.4,55.2,30.03,NNE,22,3.4,9.8,42,0.00,,,0.00,WUHU21623XXSP,2013-05-01 21:06:00,
2013-05-01 16:11:00,80.6,57.8,30.03,NNE,22,4.9,9.8,46,0.00,,,0.00,WUHU21623XXSP,2013-05-01 21:11:00,
2013-05-01 16:16:00,80.4,58.3,30.03,NE,45,4.9,9.2,47,0.00,,,0.00,WUHU21623XXSP,2013-05-01 21:16:00,
2013-05-01 16:21:00,79.3,57.9,30.03,NE,45,5.1,9.2,48,0.00,,,0.00,WUHU21623XXSP,2013-05-01 21:21:00,
2013-05-01 16:26:00,78.6,58.5,30.02,NNW,337,2.9,9.6,50,0.00,,,0.00,WUHU21623XXSP,2013-05-01 21:26:00,
2013-05-01 16:31:00,79.3,58.5,30.03,East,90,2.7,9.6,49,0.00,,,0.00,WUHU21623XXSP,2013-05-01 21:31:00,
2013-05-01 16:36:00,78.6,57.9,30.03,NE,45,6.7,9.2,49,0.00,,,0.00,WUHU21623XXSP,2013-05-01 21:36:00,
2013-05-01 16:41:00,77.7,57.7,30.03,ENE,67,0.9,6.9,50,0.00,,,0.00,WUHU21623XXSP,2013-05-01 21:41:00,
2013-05-01 16:45:00,77.5,58.0,30.03,ENE,67,3.4,9.4,51,0.00,,,0.00,WUHU21623XXSP,2013-05-01 21:45:00,
2013-05-01 16:50:00,78.1,58.5,30.03,NE,45,2.5,9.4,51,0.00,,,0.00,WUHU21623XXSP,2013-05-01 21:50:00,
2013-05-01 16:55:00,79.0,58.2,30.03,ENE,67,3.8,5.1,49,0.00,,,0.00,WUHU21623XXSP,2013-05-01 21:55:00,
2013-05-01 17:00:00,79.3,57.3,30.03,NE,45,1.8,6.5,47,0.00,,,0.00,WUHU21623XXSP,2013-05-01 22:00:00,
2013-05-01 17:05:00,80.2,57.5,30.03,NNE,22,3.8,6.5,46,0.00,,,0.00,WUHU21623XXSP,2013-05-01 22:05:00,
2013-05-01 17:10:00,80.8,57.4,30.03,NE,45,4.0,5.4,45,0.00,,,0.00,WUHU21623XXSP,2013-05-01 22:10:00,
2013-05-01 17:15:00,80.4,55.8,30.03,NNE,22,2.7,9.8,43,0.00,,,0.00,WUHU21623XXSP,2013-05-01 22:15:00,
2013-05-01 17:20:00,80.2,56.9,30.03,ENE,67,2.5,9.8,45,0.00,,,0.00,WUHU21623XXSP,2013-05-01 22:20:00,
2013-05-01 17:25:00,79.9,55.3,30.03,NNE,22,4.0,9.6,43,0.00,,,0.00,WUHU21623XXSP,2013-05-01 22:25:00,
2013-05-01 17:30:00,79.7,55.2,30.03,NNW,337,0.7,9.6,43,0.00,,,0.00,WUHU21623XXSP,2013-05-01 22:30:00,
2013-05-01 17:35:00,79.0,54.5,30.03,NNE,22,2.9,8.1,43,0.00,,,0.00,WUHU21623XXSP,2013-05-01 22:35:00,
2013-05-01 17:40:00,78.6,54.8,30.03,NE,45,2.5,8.1,44,0.00,,,0.00,WUHU21623XXSP,2013-05-01 22:40:00,
2013-05-01 17:45:00,78.1,54.9,30.03,ENE,67,1.6,6.7,45,0.00,,,0.00,WUHU21623XXSP,2013-05-01 22:45:00,
2013-05-01 17:50:00,77.2,54.7,30.03,NE,45,3.6,6.7,47,0.00,,,0.00,WUHU21623XXSP,2013-05-01 22:50:00,
2013-05-01 17:55:00,76.8,55.6,30.03,NE,45,3.4,6.9,48,0.00,,,0.00,WUHU21623XXSP,2013-05-01 22:55:00,
2013-05-01 18:00:00,76.8,56.2,30.02,East,90,4.0,6.9,49,0.00,,,0.00,WUHU21623XXSP,2013-05-01 23:00:00,
2013-05-01 18:05:00,76.3,56.4,30.03,ENE,67,2.0,7.2,50,0.00,,,0.00,WUHU21623XXSP,2013-05-01 23:05:00,
2013-05-01 18:10:00,76.3,56.4,30.03,NE,45,2.5,7.2,50,0.00,,,0.00,WUHU21623XXSP,2013-05-01 23:10:00,
2013-05-01 18:15:00,75.7,55.9,30.03,NW,315,3.1,6.3,50,0.00,,,0.00,WUHU21623XXSP,2013-05-01 23:15:00,
2013-05-01 18:20:00,75.4,55.6,30.03,ENE,67,3.6,7.6,50,0.00,,,0.00,WUHU21623XXSP,2013-05-01 23:20:00,
2013-05-01 18:25:00,74.5,55.2,30.04,ENE,67,3.8,9.2,51,0.00,,,0.00,WUHU21623XXSP,2013-05-01 23:25:00,
2013-05-01 18:30:00,72.7,54.5,30.04,ESE,112,1.6,9.2,53,0.00,,,0.00,WUHU21623XXSP,2013-05-01 23:30:00,
2013-05-01 18:35:00,71.8,54.2,30.04,ENE,67,1.6,7.4,54,0.00,,,0.00,WUHU21623XXSP,2013-05-01 23:35:00,
2013-05-01 18:40:00,71.2,54.2,30.04,SE,135,2.2,7.4,55,0.00,,,0.00,WUHU21623XXSP,2013-05-01 23:40:00,
2013-05-01 18:45:00,70.9,54.4,30.04,NE,45,3.6,6.3,56,0.00,,,0.00,WUHU21623XXSP,2013-05-01 23:45:00,
2013-05-01 18:51:00,70.3,53.9,30.05,NNE,22,2.5,6.3,56,0.00,,,0.00,WUHU21623XXSP,2013-05-01 23:51:00,
2013-05-01 18:55:00,70.2,54.2,30.04,East,90,5.1,5.4,57,0.00,,,0.00,WUHU21623XXSP,2013-05-01 23:55:00,
2013-05-01 19:00:00,69.6,53.7,30.05,ENE,67,2.5,5.6,57,0.00,,,0.00,WUHU21623XXSP,2013-05-02 00:00:00,
2013-05-01 19:05:00,69.4,53.5,30.05,ENE,67,0.7,6.3,57,0.00,,,0.00,WUHU21623XXSP,2013-05-02 00:05:00,
2013-05-01 19:10:00,69.1,53.2,30.05,NE,45,1.6,6.3,57,0.00,,,0.00,WUHU21623XXSP,2013-05-02 00:10:00,
2013-05-01 19:15:00,68.5,53.3,30.05,East,90,1.8,4.7,58,0.00,,,0.00,WUHU21623XXSP,2013-05-02 00:15:00,
2013-05-01 19:20:00,68.2,53.3,30.05,ENE,67,2.2,5.1,59,0.00,,,0.00,WUHU21623XXSP,2013-05-02 00:20:00,
2013-05-01 19:25:00,67.6,52.8,30.06,NE,45,5.1,8.5,59,0.00,,,0.00,WUHU21623XXSP,2013-05-02 00:25:00,
2013-05-01 19:30:00,66.9,52.6,30.06,ENE,67,4.0,8.5,60,0.00,,,0.00,WUHU21623XXSP,2013-05-02 00:30:00,
2013-05-01 19:36:00,66.4,52.6,30.06,NE,45,4.9,8.3,61,0.00,,,0.00,WUHU21623XXSP,2013-05-02 00:36:00,
2013-05-01 19:41:00,66.0,52.2,30.06,NNE,22,3.1,8.3,61,0.00,,,0.00,WUHU21623XXSP,2013-05-02 00:41:00,
2013-05-01 19:46:00,65.8,52.0,30.07,NE,45,4.3,6.9,61,0.00,,,0.00,WUHU21623XXSP,2013-05-02 00:46:00,
2013-05-01 19:51:00,65.5,52.1,30.06,NE,45,2.5,6.9,62,0.00,,,0.00,WUHU21623XXSP,2013-05-02 00:51:00,
2013-05-01 19:56:00,65.1,51.7,30.07,NE,45,1.6,6.0,62,0.00,,,0.00,WUHU21623XXSP,2013-05-02 00:56:00,
2013-05-01 20:01:00,64.9,52.0,30.07,ENE,67,1.8,6.0,63,0.00,,,0.00,WUHU21623XXSP,2013-05-02 01:01:00,
2013-05-01 20:06:00,64.8,52.3,30.07,ENE,67,3.8,7.2,64,0.00,,,0.00,WUHU21623XXSP,2013-05-02 01:06:00,
2013-05-01 20:11:00,64.6,52.5,30.07,East,90,2.9,7.2,65,0.00,,,0.00,WUHU21623XXSP,2013-05-02 01:11:00,
2013-05-01 20:16:00,64.2,52.2,30.08,NNE,22,5.1,10.5,65,0.00,,,0.00,WUHU21623XXSP,2013-05-02 01:16:00,
2013-05-01 20:21:00,64.0,52.0,30.08,East,90,4.0,10.5,65,0.00,,,0.00,WUHU21623XXSP,2013-05-02 01:21:00,
2013-05-01 20:26:00,63.7,51.7,30.08,ENE,67,0.0,6.0,65,0.00,,,0.00,WUHU21623XXSP,2013-05-02 01:26:00,
2013-05-01 20:31:00,63.1,51.1,30.09,East,90,2.7,6.0,65,0.00,,,0.00,WUHU21623XXSP,2013-05-02 01:31:00,
2013-05-01 20:36:00,62.2,50.3,30.10,East,90,2.7,5.8,65,0.00,,,0.00,WUHU21623XXSP,2013-05-02 01:36:00,
2013-05-01 20:41:00,61.3,49.1,30.10,ENE,67,2.2,5.8,64,0.00,,,0.00,WUHU21623XXSP,2013-05-02 01:41:00,
2013-05-01 20:46:00,60.1,47.5,30.10,SE,135,0.0,4.5,63,0.00,,,0.00,WUHU21623XXSP,2013-05-02 01:46:00,
2013-05-01 20:51:00,59.4,46.7,30.10,East,90,0.0,4.5,63,0.00,,,0.00,WUHU21623XXSP,2013-05-02 01:51:00,
2013-05-01 20:56:00,58.8,46.2,30.10,ENE,67,2.5,3.6,63,0.00,,,0.00,WUHU21623XXSP,2013-05-02 01:56:00,
2013-05-01 21:01:00,58.6,46.5,30.11,East,90,2.2,6.0,64,0.00,,,0.00,WUHU21623XXSP,2013-05-02 02:01:00,
2013-05-01 21:06:00,58.3,46.1,30.11,NNE,22,2.9,6.0,64,0.00,,,0.00,WUHU21623XXSP,2013-05-02 02:06:00,
2013-05-01 21:11:00,57.9,45.4,30.11,NNW,337,0.0,7.4,63,0.00,,,0.00,WUHU21623XXSP,2013-05-02 02:11:00,
2013-05-01 21:16:00,57.6,44.6,30.12,North,0,1.8,7.4,62,0.00,,,0.00,WUHU21623XXSP,2013-05-02 02:16:00,
2013-05-01 21:21:00,57.2,44.3,30.12,ENE,67,3.6,7.6,62,0.00,,,0.00,WUHU21623XXSP,2013-05-02 02:21:00,
2013-05-01 21:26:00,56.8,43.6,30.13,ENE,67,3.1,7.6,61,0.00,,,0.00,WUHU21623XXSP,2013-05-02 02:26:00,
2013-05-01 21:31:00,56.5,43.6,30.12,East,90,2.2,8.3,62,0.00,,,0.00,WUHU21623XXSP,2013-05-02 02:31:00,
2013-05-01 21:36:00,56.3,43.4,30.13,ENE,67,0.9,8.3,62,0.00,,,0.00,WUHU21623XXSP,2013-05-02 02:36:00,
2013-05-01 21:41:00,56.1,43.3,30.15,ENE,67,2.5,6.7,62,0.00,,,0.00,WUHU21623XXSP,2013-05-02 02:41:00,
2013-05-01 21:46:00,56.1,43.3,30.15,NW,315,0.0,11.4,62,0.00,,,0.00,WUHU21623XXSP,2013-05-02 02:46:00,
2013-05-01 21:51:00,56.1,43.6,30.16,NE,45,1.3,11.4,63,0.00,,,0.00,WUHU21623XXSP,2013-05-02 02:51:00,
2013-05-01 21:56:00,55.9,43.5,30.17,North,0,5.4,9.2,63,0.00,,,0.00,WUHU21623XXSP,2013-05-02 02:56:00,
2013-05-01 22:01:00,55.8,43.3,30.17,East,90,6.9,7.6,63,0.00,,,0.00,WUHU21623XXSP,2013-05-02 03:01:00,
2013-05-01 22:06:00,55.4,42.5,30.17,NE,45,1.6,10.3,62,0.00,,,0.00,WUHU21623XXSP,2013-05-02 03:06:00,
2013-05-01 22:11:00,55.2,42.8,30.16,SSE,157,5.1,10.3,63,0.00,,,0.00,WUHU21623XXSP,2013-05-02 03:11:00,
2013-05-01 22:16:00,55.0,42.6,30.17,North,0,6.9,9.2,63,0.00,,,0.00,WUHU21623XXSP,2013-05-02 03:16:00,
2013-05-01 22:21:00,54.9,42.9,30.17,NE,45,6.7,8.5,64,0.00,,,0.00,WUHU21623XXSP,2013-05-02 03:21:00,
2013-05-01 22:26:00,54.5,42.5,30.17,NNE,22,3.6,9.8,64,0.00,,,0.00,WUHU21623XXSP,2013-05-02 03:26:00,
2013-05-01 22:31:00,54.3,42.4,30.17,NE,45,3.4,9.8,64,0.00,,,0.00,WUHU21623XXSP,2013-05-02 03:31:00,
2013-05-01 22:36:00,54.1,42.2,30.16,NE,45,0.0,7.2,64,0.00,,,0.00,WUHU21623XXSP,2013-05-02 03:36:00,
2013-05-01 22:41:00,54.1,42.2,30.16,North,0,6.3,8.5,64,0.00,,,0.00,WUHU21623XXSP,2013-05-02 03:41:00,
2013-05-01 22:46:00,54.0,42.0,30.16,NNE,22,5.4,8.5,64,0.00,,,0.00,WUHU21623XXSP,2013-05-02 03:46:00,
2013-05-01 22:51:00,53.4,41.8,30.16,NE,45,5.1,11.4,64,0.00,,,0.00,WUHU21623XXSP,2013-05-02 03:51:00,
2013-05-01 22:56:00,53.2,41.3,30.16,NE,45,4.5,11.4,64,0.00,,,0.00,WUHU21623XXSP,2013-05-02 03:56:00,
2013-05-01 23:01:00,53.2,41.7,30.17,North,0,5.8,11.2,65,0.00,,,0.00,WUHU21623XXSP,2013-05-02 04:01:00,
2013-05-01 23:06:00,52.9,41.4,30.16,East,90,3.1,7.6,65,0.00,,,0.00,WUHU21623XXSP,2013-05-02 04:06:00,
2013-05-01 23:11:00,52.9,41.4,30.17,NNE,22,3.8,7.8,65,0.00,,,0.00,WUHU21623XXSP,2013-05-02 04:11:00,
2013-05-01 23:16:00,52.7,41.2,30.17,NE,45,5.4,7.8,65,0.00,,,0.00,WUHU21623XXSP,2013-05-02 04:16:00,
2013-05-01 23:21:00,52.5,41.1,30.16,ENE,67,2.9,5.8,65,0.00,,,0.00,WUHU21623XXSP,2013-05-02 04:21:00,
2013-05-01 23:26:00,52.5,41.1,30.17,NNE,22,2.7,8.5,65,0.00,,,0.00,WUHU21623XXSP,2013-05-02 04:26:00,
2013-05-01 23:31:00,52.3,40.9,30.17,NE,45,5.4,8.5,65,0.00,,,0.00,WUHU21623XXSP,2013-05-02 04:31:00,
2013-05-01 23:36:00,52.2,40.7,30.17,NNE,22,6.7,6.7,65,0.00,,,0.00,WUHU21623XXSP,2013-05-02 04:36:00,
2013-05-01 23:41:00,52.0,40.5,30.16,NE,45,5.4,7.6,65,0.00,,,0.00,WUHU21623XXSP,2013-05-02 04:41:00,
2013-05-01 23:46:00,52.0,40.5,30.17,NE,45,4.7,7.6,65,0.00,,,0.00,WUHU21623XXSP,2013-05-02 04:46:00,
2013-05-01 23:51:00,51.8,40.4,30.16,NE,45,5.1,6.7,65,0.00,,,0.00,WUHU21623XXSP,2013-05-02 04:51:00,
2013-05-01 23:56:00,51.6,40.2,30.16,NNE,22,4.0,14.1,65,0.00,,,0.00,WUHU21623XXSP,2013-05-02 04:56:00,